Time;durP1;ratioP1;P1;durP2;ratioP2;P2;SDS_P1;SDS_P2;PMS_P1;PMS_P2;Temp;Humidity;BMP_temperature;BMP_pressure;BME280_temperature;BME280_humidity;BME280_pressure;Samples;Min_cycle;Max_cycle;Signal;HPM_P1;HPM_P2
2021/08/31 00:00:27;;;;;;;6.80;4.55;;;;;;;24.20;49.21;100502.34;1790290;78;21027;-42
2021/08/31 00:02:55;;;;;;;8.10;4.45;;;;;;;24.20;49.27;100495.39;1778890;78;21039;-42
2021/08/31 00:05:21;;;;;;;7.53;4.50;;;;;;;24.19;49.27;100495.19;1784877;79;21072;-43
2021/08/31 00:07:48;;;;;;;6.00;4.70;;;;;;;24.17;49.30;100499.69;1783497;78;21467;-42
2021/08/31 00:10:14;;;;;;;6.08;4.70;;;;;;;24.18;49.33;100500.50;1781745;79;21928;-41
2021/08/31 00:12:40;;;;;;;6.03;4.60;;;;;;;24.17;49.34;100502.47;1796046;78;21071;-43
2021/08/31 00:15:08;;;;;;;6.67;4.67;;;;;;;24.17;49.37;100497.48;1761014;79;21806;-42
2021/08/31 00:17:34;;;;;;;5.97;4.62;;;;;;;24.16;49.38;100494.47;1761272;79;21043;-42
2021/08/31 00:20:01;;;;;;;5.92;4.75;;;;;;;24.16;49.43;100497.25;1756637;80;21154;-41
2021/08/31 00:22:27;;;;;;;7.33;4.80;;;;;;;24.15;49.45;100490.88;1754378;79;21107;-42
2021/08/31 00:24:53;;;;;;;5.60;4.37;;;;;;;24.13;49.45;100493.99;1756123;79;21537;-42
2021/08/31 00:27:19;;;;;;;7.00;4.33;;;;;;;24.13;49.46;100487.63;1758364;80;20979;-44
2021/08/31 00:29:46;;;;;;;4.87;4.17;;;;;;;24.13;49.49;100493.18;1756691;79;21116;-43
2021/08/31 00:32:12;;;;;;;6.10;4.35;;;;;;;24.12;49.52;100497.92;1755388;79;21622;-41
2021/08/31 00:34:38;;;;;;;6.25;4.25;;;;;;;24.11;49.52;100500.47;1761044;80;21406;-43
2021/08/31 00:37:05;;;;;;;5.78;4.22;;;;;;;24.11;49.54;100504.64;1759273;79;21042;-42
2021/08/31 00:39:32;;;;;;;5.17;4.15;;;;;;;24.11;49.57;100504.64;1748396;80;21109;-42
2021/08/31 00:41:58;;;;;;;6.72;4.70;;;;;;;24.11;49.60;100506.59;1759708;79;21122;-42
2021/08/31 00:44:27;;;;;;;5.75;4.67;;;;;;;24.10;49.61;100505.00;1730299;80;21082;-40
2021/08/31 00:46:55;;;;;;;4.78;4.00;;;;;;;24.09;49.62;100501.98;1755167;80;21031;-41
2021/08/31 00:49:21;;;;;;;5.20;4.50;;;;;;;24.09;49.65;100500.59;1754952;80;21114;-42
2021/08/31 00:51:48;;;;;;;6.90;4.42;;;;;;;24.08;49.66;100501.17;1755280;80;21526;-41
2021/08/31 00:54:16;;;;;;;5.67;4.25;;;;;;;24.08;49.69;100501.75;1731403;80;21583;-42
2021/08/31 00:56:48;;;;;;;6.15;4.40;;;;;;;24.07;49.71;100501.51;1758808;80;21527;-41
2021/08/31 00:59:16;;;;;;;6.10;4.30;;;;;;;24.07;49.74;100501.51;1758475;79;21084;-42
2021/08/31 01:01:43;;;;;;;7.97;4.62;;;;;;;24.06;49.75;100505.47;1757105;80;21119;-41
2021/08/31 01:04:09;;;;;;;6.00;4.67;;;;;;;24.05;49.77;100513.57;1754693;79;21126;-42
2021/08/31 01:06:35;;;;;;;7.55;4.35;;;;;;;24.05;49.79;100513.57;1753761;80;21204;-42
2021/08/31 01:09:01;;;;;;;5.62;4.58;;;;;;;24.04;49.82;100513.33;1757822;80;21075;-41
2021/08/31 01:11:28;;;;;;;5.85;4.58;;;;;;;24.03;49.85;100516.69;1754725;79;21044;-41
2021/08/31 01:13:54;;;;;;;5.83;4.30;;;;;;;24.03;49.86;100515.88;1758518;78;21093;-43
2021/08/31 01:16:20;;;;;;;4.92;4.10;;;;;;;24.02;49.87;100508.11;1780212;78;21158;-43
2021/08/31 01:18:46;;;;;;;5.55;4.30;;;;;;;24.02;49.92;100516.45;1788636;78;21103;-42
2021/08/31 01:21:12;;;;;;;6.40;4.47;;;;;;;24.02;49.96;100515.63;1798810;78;21492;-41
2021/08/31 01:23:39;;;;;;;5.55;5.03;;;;;;;24.02;49.98;100518.41;1788683;78;21936;-41
2021/08/31 01:26:05;;;;;;;6.47;4.40;;;;;;;24.01;49.99;100520.98;1795219;78;21060;-41
2021/08/31 01:28:32;;;;;;;5.58;4.65;;;;;;;24.00;50.02;100516.58;1779400;78;23116;-42
2021/08/31 01:30:59;;;;;;;6.60;4.30;;;;;;;23.99;50.05;100514.95;1784664;78;21067;-41
2021/08/31 01:33:29;;;;;;;6.15;4.12;;;;;;;23.99;50.07;100508.00;1775916;79;21085;-41
2021/08/31 01:35:55;;;;;;;6.40;3.98;;;;;;;23.98;50.08;100508.58;1787682;78;21041;-42
2021/08/31 01:38:21;;;;;;;6.75;4.35;;;;;;;23.98;50.10;100507.77;1792481;78;21049;-41
2021/08/31 01:40:47;;;;;;;5.65;4.12;;;;;;;23.96;50.11;100512.30;1793459;78;22034;-41
2021/08/31 01:43:26;;;;;;;5.08;4.30;;;;;;;23.97;50.14;100514.50;1792917;78;20925;-42
2021/08/31 01:45:53;;;;;;;5.25;4.70;;;;;;;23.98;50.17;100518.87;1791969;79;21107;-41
2021/08/31 01:48:19;;;;;;;6.17;4.40;;;;;;;23.96;50.21;100519.82;1785449;79;21095;-42
2021/08/31 01:50:45;;;;;;;5.45;4.25;;;;;;;23.96;50.23;100522.59;1783309;78;21049;-42
2021/08/31 01:53:11;;;;;;;5.15;4.12;;;;;;;23.96;50.23;100519.82;1762008;78;21175;-41
2021/08/31 01:55:38;;;;;;;4.97;4.12;;;;;;;23.94;50.28;100521.55;1787365;78;21584;-41
2021/08/31 01:58:04;;;;;;;5.42;4.25;;;;;;;23.94;50.29;100524.90;1783405;78;21083;-41
2021/08/31 02:00:31;;;;;;;5.85;4.70;;;;;;;23.93;50.32;100526.08;1783948;78;22258;-43
2021/08/31 02:02:58;;;;;;;6.22;4.37;;;;;;;23.93;50.35;100528.86;1795026;78;21502;-42
2021/08/31 02:05:25;;;;;;;5.85;4.53;;;;;;;23.92;50.36;100530.01;1784338;78;21305;-42
2021/08/31 02:07:51;;;;;;;4.58;4.17;;;;;;;23.92;50.39;100530.01;1786925;78;21056;-41
2021/08/31 02:10:17;;;;;;;4.72;4.00;;;;;;;23.91;50.41;100525.60;1779572;78;20956;-43
2021/08/31 02:12:44;;;;;;;4.15;3.70;;;;;;;23.90;50.44;100528.95;1790709;78;21632;-42
2021/08/31 02:15:10;;;;;;;6.00;4.42;;;;;;;23.89;50.46;100527.33;1783279;78;21043;-42
2021/08/31 02:17:40;;;;;;;4.28;3.85;;;;;;;23.88;50.48;100525.73;1787538;78;22022;-41
2021/08/31 02:20:11;;;;;;;5.17;4.50;;;;;;;23.88;50.49;100527.12;1788712;78;21009;-43
2021/08/31 02:22:38;;;;;;;;;;;;;;;23.88;50.50;100523.52;1789485;78;21146;-41
2021/08/31 02:25:05;;;;;;;6.72;4.47;;;;;;;23.87;50.51;100524.67;1787144;78;20629;-43
2021/08/31 02:27:31;;;;;;;5.95;4.50;;;;;;;23.85;50.55;100527.00;1795571;78;21050;-42
2021/08/31 02:29:57;;;;;;;5.30;4.47;;;;;;;23.84;50.56;100528.97;1788582;78;21234;-42
2021/08/31 02:32:23;;;;;;;4.92;4.42;;;;;;;23.84;50.58;100523.98;1791060;78;21003;-43
2021/08/31 02:34:49;;;;;;;4.65;4.20;;;;;;;23.84;50.58;100524.80;1786220;78;21076;-41
2021/08/31 02:37:16;;;;;;;5.70;4.25;;;;;;;23.84;50.59;100519.82;1788918;78;21522;-41
2021/08/31 02:39:42;;;;;;;5.15;4.58;;;;;;;23.83;50.62;100519.58;1777601;78;21081;-42
2021/08/31 02:42:08;;;;;;;5.95;4.42;;;;;;;23.82;50.64;100519.34;1778278;78;21120;-42
2021/08/31 02:44:34;;;;;;;5.90;4.33;;;;;;;23.83;50.65;100527.91;1793784;78;21003;-42
2021/08/31 02:47:00;;;;;;;5.97;4.45;;;;;;;23.82;50.65;100528.48;1781072;78;21068;-42
2021/08/31 02:49:26;;;;;;;5.08;4.33;;;;;;;23.81;50.70;100531.03;1787975;78;21083;-41
2021/08/31 02:51:53;;;;;;;9.48;4.80;;;;;;;23.81;50.70;100531.03;1793449;78;21003;-42
2021/08/31 02:54:19;;;;;;;4.92;4.47;;;;;;;23.80;50.73;100533.59;1785240;78;21289;-41
2021/08/31 02:56:45;;;;;;;5.33;4.15;;;;;;;23.81;50.75;100543.53;1787472;79;21089;-41
2021/08/31 02:59:11;;;;;;;5.12;4.40;;;;;;;23.79;50.78;100541.69;1789305;78;21099;-42
2021/08/31 03:01:39;;;;;;;4.67;4.25;;;;;;;23.80;50.78;100538.34;1783132;78;20873;-41
2021/08/31 03:04:06;;;;;;;4.65;4.12;;;;;;;23.80;50.81;100545.28;1788052;78;21055;-41
2021/08/31 03:06:32;;;;;;;4.40;4.00;;;;;;;23.78;50.81;100542.02;1793775;78;21032;-41
2021/08/31 03:08:58;;;;;;;5.92;4.28;;;;;;;23.77;50.86;100545.37;1790283;78;21100;-42
2021/08/31 03:11:25;;;;;;;5.53;4.83;;;;;;;23.78;50.84;100546.19;1755900;79;20925;-42
2021/08/31 03:13:51;;;;;;;6.33;4.20;;;;;;;23.78;50.87;100548.97;1749142;80;21050;-40
2021/08/31 03:16:17;;;;;;;5.30;4.37;;;;;;;23.78;50.93;100548.97;1747008;79;21113;-41
2021/08/31 03:18:43;;;;;;;7.85;4.42;;;;;;;23.77;50.90;100560.66;1793303;78;21569;-42
2021/08/31 03:21:09;;;;;;;4.87;4.37;;;;;;;23.75;50.92;100557.42;1792128;78;21438;-41
2021/08/31 03:23:35;;;;;;;6.72;4.30;;;;;;;23.75;50.97;100564.38;1749989;79;21119;-40
2021/08/31 03:26:02;;;;;;;4.58;4.12;;;;;;;23.75;50.97;100558.81;1788130;78;21032;-43
2021/08/31 03:28:28;;;;;;;4.47;4.08;;;;;;;23.74;50.99;100554.41;1734988;81;21051;-41
2021/08/31 03:30:55;;;;;;;5.35;4.75;;;;;;;23.74;51.01;100562.74;1784817;78;21316;-40
2021/08/31 03:33:21;;;;;;;6.33;4.45;;;;;;;23.74;51.03;100561.93;1785418;78;21093;-45
2021/08/31 03:35:47;;;;;;;5.33;4.45;;;;;;;23.74;51.05;100563.31;1786006;78;21081;-40
2021/08/31 03:38:13;;;;;;;4.97;4.33;;;;;;;23.72;51.07;100558.70;1788279;78;20889;-42
2021/08/31 03:40:39;;;;;;;4.95;4.40;;;;;;;23.71;51.06;100567.61;1790273;78;21110;-42
2021/08/31 03:43:05;;;;;;;5.08;4.58;;;;;;;23.71;51.10;100563.44;1784235;78;21594;-40
2021/08/31 03:45:31;;;;;;;5.47;4.47;;;;;;;23.72;51.11;100572.59;1783177;78;21004;-41
2021/08/31 03:47:57;;;;;;;5.42;4.60;;;;;;;23.70;51.12;100573.50;1783408;78;21712;-41
2021/08/31 03:50:24;;;;;;;5.65;4.30;;;;;;;23.70;51.13;100576.27;1786308;78;21071;-43
2021/08/31 03:52:50;;;;;;;4.25;3.85;;;;;;;23.68;51.17;100570.48;1780704;78;21043;-43
2021/08/31 03:55:16;;;;;;;212.50;59.88;;;;;;;23.70;51.19;100571.53;1789782;78;21315;-45
2021/08/31 03:57:42;;;;;;;157.35;46.83;;;;;;;23.71;51.24;100569.56;1790727;78;20877;-44
2021/08/31 04:00:10;;;;;;;140.92;37.03;;;;;;;23.72;51.30;100573.38;1782822;78;21062;-44
2021/08/31 04:02:37;;;;;;;126.65;36.65;;;;;;;23.73;51.40;100575.58;1780569;78;21051;-44
2021/08/31 04:05:05;;;;;;;123.75;35.17;;;;;;;23.75;51.49;100580.22;1793837;78;21075;-45
2021/08/31 04:07:31;;;;;;;73.55;25.82;;;;;;;23.76;51.56;100586.02;1781072;78;21066;-44
2021/08/31 04:09:57;;;;;;;113.57;36.60;;;;;;;23.78;51.62;100585.08;1789008;78;21438;-45
2021/08/31 04:12:23;;;;;;;119.30;34.63;;;;;;;23.79;51.66;100586.71;1787846;78;21051;-41
2021/08/31 04:14:50;;;;;;;17.37;7.75;;;;;;;23.79;51.69;100593.08;1789229;79;21443;-42
2021/08/31 04:17:16;;;;;;;7.17;5.15;;;;;;;23.81;51.74;100599.09;1788587;78;21114;-42
2021/08/31 04:19:42;;;;;;;5.55;4.30;;;;;;;23.81;51.74;100599.66;1732583;81;21462;-42
2021/08/31 04:22:09;;;;;;;6.08;4.40;;;;;;;23.82;51.73;100599.91;1728041;81;21103;-42
2021/08/31 04:24:36;;;;;;;4.47;3.87;;;;;;;23.82;51.72;100602.11;1748858;80;21088;-43
2021/08/31 04:27:04;;;;;;;5.42;3.90;;;;;;;23.82;51.72;100601.30;1746405;80;21903;-44
2021/08/31 04:29:30;;;;;;;9.45;5.00;;;;;;;23.83;51.70;100597.37;1754662;80;21054;-43
2021/08/31 04:31:56;;;;;;;41.65;15.05;;;;;;;23.83;51.68;100597.37;1751130;79;21923;-44
2021/08/31 04:34:22;;;;;;;98.72;30.15;;;;;;;23.85;51.69;100602.80;1748596;79;21021;-44
2021/08/31 04:36:48;;;;;;;27.37;9.35;;;;;;;23.85;51.68;100597.24;1748647;80;21495;-43
2021/08/31 04:39:14;;;;;;;19.35;8.28;;;;;;;23.86;51.70;100599.45;1749354;79;21346;-42
2021/08/31 04:41:40;;;;;;;8.38;5.35;;;;;;;23.87;51.73;100601.08;1751127;81;21059;-42
2021/08/31 04:44:07;;;;;;;5.95;4.50;;;;;;;23.88;51.71;100602.70;1748954;81;21321;-41
2021/08/31 04:46:33;;;;;;;5.22;4.03;;;;;;;23.88;51.71;100602.13;1751487;81;21093;-43
2021/08/31 04:48:59;;;;;;;5.40;4.53;;;;;;;23.87;51.71;100603.28;1755140;80;21010;-42
2021/08/31 04:51:25;;;;;;;6.30;4.35;;;;;;;23.89;51.74;100604.34;1727711;81;21053;-42
2021/08/31 04:53:51;;;;;;;13.43;5.83;;;;;;;23.89;51.73;100614.84;1745862;80;21076;-43
2021/08/31 04:56:17;;;;;;;7.15;4.58;;;;;;;23.89;51.73;100611.28;1759488;80;21192;-43
2021/08/31 04:58:43;;;;;;;15.35;7.08;;;;;;;23.89;51.74;100602.95;1731597;81;21087;-42
2021/08/31 05:01:10;;;;;;;21.65;8.23;;;;;;;23.88;51.76;100609.08;1751668;81;21559;-45
2021/08/31 05:03:37;;;;;;;16.30;8.38;;;;;;;23.90;51.76;100613.70;1741953;80;21099;-43
2021/08/31 05:06:04;;;;;;;21.12;8.88;;;;;;;23.90;51.79;100615.09;1731475;81;21333;-42
2021/08/31 05:08:30;;;;;;;22.52;8.30;;;;;;;23.89;51.81;100608.50;1722834;83;21281;-42
2021/08/31 05:10:56;;;;;;;17.73;7.83;;;;;;;23.89;51.81;100614.06;1741601;80;21509;-43
2021/08/31 05:13:22;;;;;;;20.15;9.40;;;;;;;23.89;51.81;100606.52;1758520;81;21083;-42
2021/08/31 05:15:48;;;;;;;17.00;7.35;;;;;;;23.89;51.82;100606.52;1751453;80;21587;-42
2021/08/31 05:18:14;;;;;;;21.17;8.90;;;;;;;23.89;51.84;100604.34;1748308;81;21083;-44
2021/08/31 05:20:40;;;;;;;14.38;8.05;;;;;;;23.89;51.84;100610.67;1750689;80;21951;-42
2021/08/31 05:23:07;;;;;;;18.62;8.15;;;;;;;23.90;51.86;100608.14;1750179;80;20964;-43
2021/08/31 05:25:33;;;;;;;15.58;7.92;;;;;;;23.88;51.87;100611.86;1749326;80;21068;-42
2021/08/31 05:27:59;;;;;;;18.60;7.50;;;;;;;23.89;51.87;100611.28;1753638;80;20992;-42
2021/08/31 05:30:25;;;;;;;16.75;8.35;;;;;;;23.88;51.88;100614.64;1756075;81;21643;-43
2021/08/31 05:32:51;;;;;;;19.25;7.37;;;;;;;23.89;51.88;100615.45;1751767;80;23119;-43
2021/08/31 05:35:17;;;;;;;15.32;7.22;;;;;;;23.89;51.90;100614.06;1754073;80;21102;-43
2021/08/31 05:37:43;;;;;;;18.82;7.85;;;;;;;23.88;51.90;100616.03;1753258;80;20926;-43
2021/08/31 05:40:11;;;;;;;16.17;7.72;;;;;;;23.88;51.90;100616.03;1748527;80;20920;-43
2021/08/31 05:42:37;;;;;;;11.85;7.08;;;;;;;23.89;51.90;100615.45;1743701;80;21116;-42
2021/08/31 05:45:05;;;;;;;12.20;6.47;;;;;;;23.89;51.92;100616.84;1748091;81;21269;-42
2021/08/31 05:47:32;;;;;;;14.33;6.78;;;;;;;23.89;51.90;100612.67;1749407;81;21912;-43
2021/08/31 05:49:58;;;;;;;13.18;6.87;;;;;;;23.91;51.91;100613.13;1747685;80;21111;-42
2021/08/31 05:52:25;;;;;;;12.85;6.83;;;;;;;23.89;51.90;100621.02;1748718;81;21073;-43
2021/08/31 05:54:51;;;;;;;13.62;6.67;;;;;;;23.89;51.89;100617.63;1717382;81;20877;-43
2021/08/31 05:57:17;;;;;;;14.25;6.55;;;;;;;23.89;51.88;100617.63;1742328;80;21158;-43
2021/08/31 05:59:43;;;;;;;14.60;6.83;;;;;;;23.89;51.88;100614.84;1742556;80;22410;-42
2021/08/31 06:02:10;;;;;;;13.65;6.20;;;;;;;23.90;51.89;100617.87;1742711;80;21063;-42
2021/08/31 06:04:37;;;;;;;11.05;5.95;;;;;;;23.89;51.88;100611.28;1740999;82;21077;-42
2021/08/31 06:07:08;;;;;;;13.03;6.15;;;;;;;23.90;51.88;100620.64;1742049;82;21143;-44
2021/08/31 06:09:36;;;;;;;11.93;6.42;;;;;;;23.89;51.89;100623.19;1743711;80;21121;-44
2021/08/31 06:12:06;;;;;;;16.02;6.00;;;;;;;23.91;51.87;100620.07;1739501;82;21544;-43
2021/08/31 06:14:33;;;;;;;10.00;6.05;;;;;;;23.91;51.87;100614.52;1738154;80;21063;-43
2021/08/31 06:16:59;;;;;;;11.68;5.60;;;;;;;23.91;51.88;100618.11;1751489;80;21099;-42
2021/08/31 06:19:25;;;;;;;10.45;5.50;;;;;;;23.90;51.87;100612.31;1744222;80;21076;-44
2021/08/31 06:21:51;;;;;;;13.25;5.92;;;;;;;23.91;51.88;100610.34;1749878;80;21200;-43
2021/08/31 06:24:17;;;;;;;9.03;5.22;;;;;;;23.90;51.87;100613.70;1751162;80;21570;-43
2021/08/31 06:26:43;;;;;;;8.83;5.12;;;;;;;23.90;51.87;100619.26;1751408;80;21052;-43
2021/08/31 06:29:09;;;;;;;8.85;4.80;;;;;;;23.90;51.85;100615.09;1788179;79;21075;-42
2021/08/31 06:31:35;;;;;;;9.15;5.00;;;;;;;23.91;51.87;100619.50;1785262;78;21106;-44
2021/08/31 06:34:01;;;;;;;10.53;5.37;;;;;;;23.92;51.85;100620.31;1784446;78;21235;-43
2021/08/31 06:36:27;;;;;;;9.75;5.45;;;;;;;23.92;51.85;100616.95;1783315;78;21114;-45
2021/08/31 06:38:53;;;;;;;9.08;4.83;;;;;;;23.92;51.85;100611.98;1798145;78;20886;-43
2021/08/31 06:41:19;;;;;;;11.12;5.20;;;;;;;23.91;51.83;100614.52;1789276;78;20842;-43
2021/08/31 06:43:46;;;;;;;7.97;4.55;;;;;;;23.91;51.83;100608.38;1788315;78;21712;-43
2021/08/31 06:46:14;;;;;;;9.33;4.83;;;;;;;23.92;51.83;100611.41;1784915;78;22191;-43
2021/08/31 06:48:43;;;;;;;10.00;4.95;;;;;;;23.92;51.82;100607.81;1795647;78;21095;-42
2021/08/31 06:51:11;;;;;;;8.13;4.80;;;;;;;23.92;51.82;100610.59;1792867;78;21009;-43
2021/08/31 06:53:37;;;;;;;7.80;4.47;;;;;;;23.92;51.82;100616.14;1792668;78;21024;-43
2021/08/31 06:56:04;;;;;;;7.45;3.92;;;;;;;23.92;51.80;100612.79;1799390;78;21027;-42
2021/08/31 06:58:31;;;;;;;8.50;4.58;;;;;;;23.92;51.79;100620.31;1788039;78;21085;-44
2021/08/31 07:00:57;;;;;;;6.92;3.30;;;;;;;23.92;51.80;100616.95;1786870;78;21131;-42
2021/08/31 07:03:23;;;;;;;7.53;4.28;;;;;;;23.92;51.78;100619.73;1792274;78;22230;-44
2021/08/31 07:05:49;;;;;;;6.78;3.98;;;;;;;23.92;51.79;100611.98;1787848;78;21024;-42
2021/08/31 07:08:15;;;;;;;7.25;3.80;;;;;;;23.93;51.78;100615.00;1792242;78;21032;-42
2021/08/31 07:10:42;;;;;;;5.65;4.00;;;;;;;23.93;51.78;100615.78;1785734;78;21104;-43
2021/08/31 07:13:08;;;;;;;7.67;4.08;;;;;;;23.93;51.77;100618.56;1796243;78;21131;-45
2021/08/31 07:15:34;;;;;;;5.97;3.80;;;;;;;23.94;51.76;100622.16;1798728;78;21839;-42
2021/08/31 07:18:01;;;;;;;5.65;3.67;;;;;;;23.93;51.76;100619.16;1795445;78;21903;-42
2021/08/31 07:20:27;;;;;;;9.30;4.37;;;;;;;23.95;51.76;100622.39;1790105;78;20997;-42
2021/08/31 07:22:54;;;;;;;6.83;4.28;;;;;;;23.94;51.75;100618.80;1784841;78;21105;-42
2021/08/31 07:25:21;;;;;;;6.58;3.90;;;;;;;23.94;51.73;100621.58;1791853;78;21553;-43
2021/08/31 07:27:47;;;;;;;6.78;4.10;;;;;;;23.94;51.73;100621.58;1798021;78;21000;-43
2021/08/31 07:30:13;;;;;;;6.67;3.27;;;;;;;23.94;51.73;100614.62;1782878;78;21014;-43
2021/08/31 07:32:39;;;;;;;9.53;4.12;;;;;;;23.95;51.72;100621.00;1800017;78;21048;-42
2021/08/31 07:35:07;;;;;;;5.30;3.22;;;;;;;23.95;51.71;100622.39;1798512;78;22672;-42
2021/08/31 07:37:33;;;;;;;5.87;3.42;;;;;;;23.94;51.70;100621.58;1791138;78;21041;-42
2021/08/31 07:40:00;;;;;;;5.70;3.35;;;;;;;23.95;51.68;100620.43;1797252;78;21123;-43
2021/08/31 07:42:26;;;;;;;6.25;3.80;;;;;;;23.96;51.68;100629.00;1783156;79;20870;-44
2021/08/31 07:44:52;;;;;;;7.10;3.60;;;;;;;23.95;51.66;100619.61;1788864;78;21526;-43
2021/08/31 07:47:18;;;;;;;5.85;3.10;;;;;;;23.96;51.67;100628.19;1784320;78;22031;-43
2021/08/31 07:49:44;;;;;;;4.90;3.30;;;;;;;23.96;51.65;100626.80;1787307;78;21103;-43
2021/08/31 07:52:10;;;;;;;5.20;2.95;;;;;;;23.96;51.65;100625.41;1792695;78;21028;-42
2021/08/31 07:54:36;;;;;;;5.55;3.50;;;;;;;23.96;51.64;100629.58;1781268;78;21061;-44
2021/08/31 07:57:04;;;;;;;6.95;3.75;;;;;;;23.95;51.63;100624.59;1780213;78;21082;-42
2021/08/31 07:59:30;;;;;;;7.37;3.60;;;;;;;23.96;51.61;100626.80;1778244;78;21146;-43
2021/08/31 08:01:56;;;;;;;5.40;3.10;;;;;;;23.96;51.58;100620.67;1781266;78;21011;-42
2021/08/31 08:04:22;;;;;;;6.87;3.65;;;;;;;23.96;51.59;100616.50;1780602;78;21156;-44
2021/08/31 08:06:48;;;;;;;6.25;3.58;;;;;;;23.97;51.55;100624.27;1787580;78;20946;-43
2021/08/31 08:09:14;;;;;;;4.50;3.20;;;;;;;23.96;51.52;100613.72;1789607;78;21060;-42
2021/08/31 08:11:40;;;;;;;4.72;3.15;;;;;;;23.96;51.50;100619.85;1787844;78;21242;-43
2021/08/31 08:14:07;;;;;;;5.75;3.08;;;;;;;23.96;51.45;100616.50;1787312;78;21102;-45
2021/08/31 08:16:33;;;;;;;5.00;3.05;;;;;;;23.96;51.42;100622.06;1791233;78;21066;-42
2021/08/31 08:18:59;;;;;;;5.40;3.40;;;;;;;23.96;51.37;100620.67;1803758;78;21040;-43
2021/08/31 08:21:25;;;;;;;4.78;3.40;;;;;;;23.97;51.35;100620.09;1793374;78;21031;-45
2021/08/31 08:23:52;;;;;;;7.70;3.75;;;;;;;23.97;51.30;100619.52;1792015;78;23211;-43
2021/08/31 08:26:18;;;;;;;4.03;3.20;;;;;;;23.97;51.23;100624.27;1794020;78;21072;-43
2021/08/31 08:28:44;;;;;;;6.37;3.75;;;;;;;23.97;51.20;100610.37;1799187;78;21118;-43
2021/08/31 08:31:10;;;;;;;5.30;3.35;;;;;;;23.97;51.15;100615.92;1798546;78;21936;-42
2021/08/31 08:33:38;;;;;;;4.12;3.10;;;;;;;23.97;51.11;100616.74;1767618;79;21048;-42
2021/08/31 08:36:07;;;;;;;4.20;3.12;;;;;;;23.98;51.04;100610.58;1796045;78;21095;-43
2021/08/31 08:38:33;;;;;;;5.55;3.47;;;;;;;23.97;51.01;100609.80;1800473;78;21128;-43
2021/08/31 08:41:04;;;;;;;5.37;3.05;;;;;;;23.98;50.94;100610.00;1797144;78;21593;-43
2021/08/31 08:43:28;;;;;;;4.28;2.98;;;;;;;23.98;50.89;100612.78;1796888;78;21241;-44
2021/08/31 08:45:55;;;;;;;6.12;3.05;;;;;;;23.99;50.83;100612.21;1755870;80;21119;-42
2021/08/31 08:48:25;;;;;;;5.75;2.98;;;;;;;23.98;50.80;100607.23;1762417;79;21256;-42
2021/08/31 08:50:54;;;;;;;4.40;3.22;;;;;;;24.00;50.75;100610.48;1760727;79;21055;-42
2021/08/31 08:53:20;;;;;;;5.33;3.20;;;;;;;23.99;50.69;100609.42;1763882;79;21056;-44
2021/08/31 08:55:48;;;;;;;4.20;3.12;;;;;;;24.00;50.63;100604.11;1763494;79;21102;-43
2021/08/31 08:58:15;;;;;;;3.35;2.80;;;;;;;23.99;50.60;100597.73;1769611;80;21074;-43
2021/08/31 09:01:05;;;;;;;4.67;3.08;;;;;;;24.00;50.55;100601.33;1763560;79;21097;-44
2021/08/31 09:03:36;;;;;;;5.60;3.30;;;;;;;23.99;50.51;100594.95;1767703;80;21058;-43
2021/08/31 09:06:20;;;;;;;3.35;2.87;;;;;;;23.99;50.45;100601.91;1762958;79;21052;-42
2021/08/31 09:08:59;;;;;;;3.47;2.95;;;;;;;23.99;50.40;100601.09;1767215;80;21904;-42
2021/08/31 09:11:38;;;;;;;3.00;2.70;;;;;;;23.99;50.36;100592.76;1763715;79;21043;-43
2021/08/31 09:14:29;;;;;;;4.33;3.10;;;;;;;23.99;50.32;100587.20;1767728;80;21114;-42
2021/08/31 09:17:04;;;;;;;3.77;2.90;;;;;;;23.98;50.28;100593.91;1762168;79;21120;-42
2021/08/31 09:19:37;;;;;;;4.15;3.40;;;;;;;23.98;50.23;100588.34;1750344;80;21113;-42
2021/08/31 09:22:24;;;;;;;3.77;3.27;;;;;;;23.98;50.20;100592.52;1794878;78;21552;-42
2021/08/31 09:25:09;;;;;;;3.37;2.95;;;;;;;23.98;50.17;100578.63;1782322;78;21049;-44
2021/08/31 09:27:41;;;;;;;4.08;3.20;;;;;;;23.98;50.14;100590.55;1800370;78;21138;-42
2021/08/31 09:30:22;;;;;;;3.67;2.95;;;;;;;23.98;50.08;100582.22;1782254;78;21075;-41
2021/08/31 09:33:12;;;;;;;3.98;3.30;;;;;;;23.98;50.03;100577.23;1794687;78;21073;-42
2021/08/31 09:35:43;;;;;;;5.10;3.22;;;;;;;23.98;50.01;100577.23;1778801;78;21209;-42
2021/08/31 09:38:15;;;;;;;3.90;3.15;;;;;;;23.98;49.95;100578.05;1721928;81;21122;-41
2021/08/31 09:40:48;;;;;;;3.47;3.17;;;;;;;23.97;49.92;100576.45;1756392;79;21696;-43
2021/08/31 09:43:21;;;;;;;4.55;2.92;;;;;;;23.98;49.86;100574.45;1754534;79;21109;-42
2021/08/31 09:45:48;;;;;;;4.80;3.52;;;;;;;23.99;49.83;100566.36;1792019;78;21088;-42
2021/08/31 09:48:18;;;;;;;4.22;3.30;;;;;;;23.99;49.81;100568.56;1790140;78;21299;-57
2021/08/31 09:50:54;;;;;;;3.80;3.40;;;;;;;24.00;49.78;100559.08;1779454;78;21081;-50
2021/08/31 09:53:28;;;;;;;5.03;3.60;;;;;;;24.02;49.75;100565.66;1784805;78;21897;-51
2021/08/31 09:56:14;;;;;;;3.98;3.30;;;;;;;24.04;49.70;100559.19;1787232;78;21127;-49
2021/08/31 09:58:44;;;;;;;4.20;3.27;;;;;;;24.04;49.65;100554.44;1787250;78;21067;-52
2021/08/31 10:01:10;;;;;;;5.00;3.30;;;;;;;24.05;49.65;100548.31;1789014;78;21095;-51
2021/08/31 10:03:39;;;;;;;3.80;3.05;;;;;;;24.05;49.62;100555.25;1791383;78;21487;-53
2021/08/31 10:06:05;;;;;;;4.08;3.10;;;;;;;24.06;49.58;100544.38;1784679;78;21104;-45
2021/08/31 10:08:32;;;;;;;3.25;2.90;;;;;;;24.08;49.60;100549.00;1791286;78;21041;-45
2021/08/31 10:11:01;;;;;;;3.90;3.30;;;;;;;24.09;49.61;100540.89;1794095;78;21106;-45
2021/08/31 10:13:27;;;;;;;5.00;3.27;;;;;;;24.11;49.63;100550.50;1777626;78;21059;-44
2021/08/31 10:15:58;;;;;;;4.78;3.50;;;;;;;24.12;49.61;100549.34;1785253;78;21099;-43
2021/08/31 10:18:27;;;;;;;6.12;3.35;;;;;;;24.14;49.64;100547.62;1763041;78;21865;-45
2021/08/31 10:21:08;;;;;;;9.85;3.70;;;;;;;24.16;49.54;100540.33;1758690;79;22262;-44
2021/08/31 10:23:43;;;;;;;6.00;3.58;;;;;;;24.15;49.23;100538.13;1760848;79;21165;-43
2021/08/31 10:26:28;;;;;;;6.78;3.12;;;;;;;24.13;48.89;100541.25;1757274;80;21076;-47
2021/08/31 10:29:23;;;;;;;7.15;3.77;;;;;;;24.12;48.63;100546.56;1763764;80;21126;-44
2021/08/31 10:31:50;;;;;;;6.03;3.47;;;;;;;24.12;48.34;100534.63;1761539;79;21617;-44
2021/08/31 10:34:34;;;;;;;5.22;3.55;;;;;;;24.12;48.06;100534.63;1761992;80;21148;-45
2021/08/31 10:37:04;;;;;;;6.60;3.27;;;;;;;24.13;47.79;100548.77;1754820;80;21077;-48
2021/08/31 10:39:49;;;;;;;11.00;4.12;;;;;;;24.13;47.52;100539.04;1754483;80;21091;-46
2021/08/31 10:42:33;;;;;;;4.50;3.10;;;;;;;24.13;47.29;100538.47;1757930;79;21562;-45
2021/08/31 10:45:03;;;;;;;9.13;3.60;;;;;;;24.14;47.04;100536.50;1756224;80;21109;-45
2021/08/31 10:47:39;;;;;;;4.90;3.58;;;;;;;24.13;46.77;100537.08;1758348;80;21053;-46
2021/08/31 10:50:10;;;;;;;6.22;3.55;;;;;;;24.14;46.53;100533.72;1754312;80;21536;-44
2021/08/31 10:52:46;;;;;;;8.73;3.17;;;;;;;24.13;46.27;100536.27;1755909;80;21064;-45
2021/08/31 10:55:27;;;;;;;9.15;4.10;;;;;;;24.12;46.00;100547.95;1754902;79;21032;-45
2021/08/31 10:58:01;;;;;;;7.20;3.72;;;;;;;24.12;45.75;100541.58;1755702;79;21817;-46
2021/08/31 11:00:33;;;;;;;6.53;3.27;;;;;;;24.12;45.57;100528.50;1756103;80;21079;-46
2021/08/31 11:02:59;;;;;;;6.47;2.85;;;;;;;24.12;45.44;100527.11;1753493;79;21054;-45
2021/08/31 11:05:29;;;;;;;6.05;3.10;;;;;;;24.13;45.28;100525.14;1758527;79;21115;-45
2021/08/31 11:08:04;;;;;;;9.03;3.30;;;;;;;24.13;45.12;100527.34;1759962;79;26484;-45
2021/08/31 11:10:34;;;;;;;8.38;3.33;;;;;;;24.14;45.01;100527.55;1763737;79;21836;-48
2021/08/31 11:13:18;;;;;;;9.95;3.30;;;;;;;24.14;44.89;100518.44;1762762;80;21084;-49
2021/08/31 11:15:47;;;;;;;6.10;3.40;;;;;;;24.14;44.80;100526.77;1764759;79;21490;-46
2021/08/31 11:18:22;;;;;;;5.20;3.08;;;;;;;24.16;44.80;100515.31;1765692;79;21008;-46
2021/08/31 11:20:46;;;;;;;7.30;3.50;;;;;;;24.20;44.86;100519.02;1755162;79;21058;-47
2021/08/31 11:23:20;;;;;;;7.47;3.08;;;;;;;24.23;45.01;100519.13;1764129;79;21103;-47
2021/08/31 11:25:49;;;;;;;4.50;3.20;;;;;;;24.27;45.20;100520.08;1754431;80;21088;-47
2021/08/31 11:28:23;;;;;;;6.37;3.60;;;;;;;24.31;45.40;100516.83;1759439;79;21035;-46